sensor_id;sensor_type;location;lat;lon;timestamp;temperature;humidity
17815;DHT22;9031;50.974;11.330;2023-07-20T00:01:15;15.60;99.90
17815;DHT22;9031;50.974;11.330;2023-07-20T00:03:40;15.70;99.90
17815;DHT22;9031;50.974;11.330;2023-07-20T00:06:06;15.70;99.90
17815;DHT22;9031;50.974;11.330;2023-07-20T00:08:32;15.60;99.90
17815;DHT22;9031;50.974;11.330;2023-07-20T00:10:57;15.70;99.90
17815;DHT22;9031;50.974;11.330;2023-07-20T00:13:23;15.70;99.90
17815;DHT22;9031;50.974;11.330;2023-07-20T00:15:49;15.50;99.90
17815;DHT22;9031;50.974;11.330;2023-07-20T00:18:16;15.50;99.90
17815;DHT22;9031;50.974;11.330;2023-07-20T00:20:41;15.50;99.90
17815;DHT22;9031;50.974;11.330;2023-07-20T00:23:07;15.50;99.90
17815;DHT22;9031;50.974;11.330;2023-07-20T00:25:32;15.40;99.90
17815;DHT22;9031;50.974;11.330;2023-07-20T00:27:58;15.50;99.90
17815;DHT22;9031;50.974;11.330;2023-07-20T00:30:24;15.40;99.90
17815;DHT22;9031;50.974;11.330;2023-07-20T00:32:49;15.40;99.90
17815;DHT22;9031;50.974;11.330;2023-07-20T00:35:15;15.40;99.90
17815;DHT22;9031;50.974;11.330;2023-07-20T00:37:40;15.40;99.90
17815;DHT22;9031;50.974;11.330;2023-07-20T00:40:06;15.30;99.90
17815;DHT22;9031;50.974;11.330;2023-07-20T00:42:35;15.30;99.90
17815;DHT22;9031;50.974;11.330;2023-07-20T00:45:01;15.10;99.90
17815;DHT22;9031;50.974;11.330;2023-07-20T00:47:27;15.10;99.90
17815;DHT22;9031;50.974;11.330;2023-07-20T00:49:53;15.10;99.90
17815;DHT22;9031;50.974;11.330;2023-07-20T00:52:20;15.10;99.90
17815;DHT22;9031;50.974;11.330;2023-07-20T00:54:47;15.20;99.90
17815;DHT22;9031;50.974;11.330;2023-07-20T00:57:14;15.20;99.90
17815;DHT22;9031;50.974;11.330;2023-07-20T00:59:41;15.20;99.90
17815;DHT22;9031;50.974;11.330;2023-07-20T01:02:07;15.20;99.90
17815;DHT22;9031;50.974;11.330;2023-07-20T01:04:33;15.20;99.90
17815;DHT22;9031;50.974;11.330;2023-07-20T01:09:42;15.20;99.90
17815;DHT22;9031;50.974;11.330;2023-07-20T01:14:47;15.10;99.90
17815;DHT22;9031;50.974;11.330;2023-07-20T01:17:12;15.10;99.90
17815;DHT22;9031;50.974;11.330;2023-07-20T01:19:39;15.10;99.90
17815;DHT22;9031;50.974;11.330;2023-07-20T01:22:20;15.10;99.90
17815;DHT22;9031;50.974;11.330;2023-07-20T01:30:50;15.10;99.90
17815;DHT22;9031;50.974;11.330;2023-07-20T01:33:18;14.90;99.90
17815;DHT22;9031;50.974;11.330;2023-07-20T01:35:47;15.00;99.90
17815;DHT22;9031;50.974;11.330;2023-07-20T01:38:14;15.00;99.90
17815;DHT22;9031;50.974;11.330;2023-07-20T01:40:40;14.90;99.90
17815;DHT22;9031;50.974;11.330;2023-07-20T01:43:06;15.00;99.90
17815;DHT22;9031;50.974;11.330;2023-07-20T01:45:31;14.90;99.90
17815;DHT22;9031;50.974;11.330;2023-07-20T01:47:57;14.90;99.90
17815;DHT22;9031;50.974;11.330;2023-07-20T01:50:22;15.00;99.90
17815;DHT22;9031;50.974;11.330;2023-07-20T01:52:48;15.10;99.90
17815;DHT22;9031;50.974;11.330;2023-07-20T01:55:14;15.10;99.90
17815;DHT22;9031;50.974;11.330;2023-07-20T01:57:39;15.10;99.90
17815;DHT22;9031;50.974;11.330;2023-07-20T02:00:05;15.20;99.90
17815;DHT22;9031;50.974;11.330;2023-07-20T02:02:32;15.10;99.90
17815;DHT22;9031;50.974;11.330;2023-07-20T02:04:57;15.00;99.90
17815;DHT22;9031;50.974;11.330;2023-07-20T02:07:23;15.00;99.90
17815;DHT22;9031;50.974;11.330;2023-07-20T02:09:48;15.10;99.90
17815;DHT22;9031;50.974;11.330;2023-07-20T02:12:14;15.10;99.90
17815;DHT22;9031;50.974;11.330;2023-07-20T02:14:39;15.10;99.90
17815;DHT22;9031;50.974;11.330;2023-07-20T02:17:05;15.10;99.90
17815;DHT22;9031;50.974;11.330;2023-07-20T02:19:31;15.10;99.90
17815;DHT22;9031;50.974;11.330;2023-07-20T02:21:56;15.10;99.90
17815;DHT22;9031;50.974;11.330;2023-07-20T02:24:22;15.10;99.90
17815;DHT22;9031;50.974;11.330;2023-07-20T02:26:48;15.00;99.90
17815;DHT22;9031;50.974;11.330;2023-07-20T02:29:14;15.00;99.90
17815;DHT22;9031;50.974;11.330;2023-07-20T02:31:39;15.00;99.90
17815;DHT22;9031;50.974;11.330;2023-07-20T02:34:07;15.10;99.90
17815;DHT22;9031;50.974;11.330;2023-07-20T02:36:34;15.00;99.90
17815;DHT22;9031;50.974;11.330;2023-07-20T02:38:59;15.00;99.90
17815;DHT22;9031;50.974;11.330;2023-07-20T02:41:25;15.00;99.90
17815;DHT22;9031;50.974;11.330;2023-07-20T02:43:51;15.10;99.90
17815;DHT22;9031;50.974;11.330;2023-07-20T02:46:16;15.10;99.90
17815;DHT22;9031;50.974;11.330;2023-07-20T02:48:42;15.20;99.90
17815;DHT22;9031;50.974;11.330;2023-07-20T02:51:07;15.20;99.90
17815;DHT22;9031;50.974;11.330;2023-07-20T02:53:33;15.10;99.90
17815;DHT22;9031;50.974;11.330;2023-07-20T02:55:59;15.10;99.90
17815;DHT22;9031;50.974;11.330;2023-07-20T02:58:24;15.00;99.90
17815;DHT22;9031;50.974;11.330;2023-07-20T03:00:50;15.00;99.90
17815;DHT22;9031;50.974;11.330;2023-07-20T03:03:15;15.00;99.90
17815;DHT22;9031;50.974;11.330;2023-07-20T03:05:42;14.90;99.90
17815;DHT22;9031;50.974;11.330;2023-07-20T03:08:07;14.90;99.90
17815;DHT22;9031;50.974;11.330;2023-07-20T03:10:33;14.90;99.90
17815;DHT22;9031;50.974;11.330;2023-07-20T03:13:03;15.00;99.90
17815;DHT22;9031;50.974;11.330;2023-07-20T03:15:28;15.10;99.90
17815;DHT22;9031;50.974;11.330;2023-07-20T03:17:54;15.30;99.90
17815;DHT22;9031;50.974;11.330;2023-07-20T03:20:20;15.50;99.90
17815;DHT22;9031;50.974;11.330;2023-07-20T03:22:46;15.50;99.90
17815;DHT22;9031;50.974;11.330;2023-07-20T03:25:11;15.40;99.90
17815;DHT22;9031;50.974;11.330;2023-07-20T03:27:37;15.50;99.90
17815;DHT22;9031;50.974;11.330;2023-07-20T03:30:02;15.50;99.90
17815;DHT22;9031;50.974;11.330;2023-07-20T03:32:28;15.50;99.90
17815;DHT22;9031;50.974;11.330;2023-07-20T03:34:54;15.50;99.90
17815;DHT22;9031;50.974;11.330;2023-07-20T03:37:19;15.60;99.90
17815;DHT22;9031;50.974;11.330;2023-07-20T03:39:44;15.60;99.90
17815;DHT22;9031;50.974;11.330;2023-07-20T03:42:10;15.50;99.90
17815;DHT22;9031;50.974;11.330;2023-07-20T03:44:35;15.50;99.90
17815;DHT22;9031;50.974;11.330;2023-07-20T03:47:01;15.60;99.90
17815;DHT22;9031;50.974;11.330;2023-07-20T03:49:28;15.60;99.90
17815;DHT22;9031;50.974;11.330;2023-07-20T03:51:54;15.70;99.90
17815;DHT22;9031;50.974;11.330;2023-07-20T03:54:21;15.70;99.90
17815;DHT22;9031;50.974;11.330;2023-07-20T03:56:46;15.80;99.90
17815;DHT22;9031;50.974;11.330;2023-07-20T03:59:11;15.80;99.90
17815;DHT22;9031;50.974;11.330;2023-07-20T04:01:37;15.80;99.90
17815;DHT22;9031;50.974;11.330;2023-07-20T04:04:07;15.90;99.90
17815;DHT22;9031;50.974;11.330;2023-07-20T04:06:33;15.90;99.90
17815;DHT22;9031;50.974;11.330;2023-07-20T04:08:59;15.90;99.90
17815;DHT22;9031;50.974;11.330;2023-07-20T04:11:25;15.90;99.90
17815;DHT22;9031;50.974;11.330;2023-07-20T04:13:50;15.90;99.90
17815;DHT22;9031;50.974;11.330;2023-07-20T04:16:16;15.90;99.90
17815;DHT22;9031;50.974;11.330;2023-07-20T04:18:41;15.90;99.90
17815;DHT22;9031;50.974;11.330;2023-07-20T04:21:08;15.90;99.90
17815;DHT22;9031;50.974;11.330;2023-07-20T04:23:34;16.00;99.90
17815;DHT22;9031;50.974;11.330;2023-07-20T04:26:00;16.00;99.90
17815;DHT22;9031;50.974;11.330;2023-07-20T04:28:26;16.00;99.90
17815;DHT22;9031;50.974;11.330;2023-07-20T04:30:52;16.10;99.90
17815;DHT22;9031;50.974;11.330;2023-07-20T04:33:18;16.10;99.90
17815;DHT22;9031;50.974;11.330;2023-07-20T04:35:51;16.10;99.90
17815;DHT22;9031;50.974;11.330;2023-07-20T04:38:18;16.20;99.90
17815;DHT22;9031;50.974;11.330;2023-07-20T04:40:50;16.20;99.90
17815;DHT22;9031;50.974;11.330;2023-07-20T04:43:16;16.10;99.90
17815;DHT22;9031;50.974;11.330;2023-07-20T04:45:42;16.20;99.90
17815;DHT22;9031;50.974;11.330;2023-07-20T04:48:14;16.30;99.90
17815;DHT22;9031;50.974;11.330;2023-07-20T04:50:41;16.30;99.90
17815;DHT22;9031;50.974;11.330;2023-07-20T04:53:08;16.30;99.90
17815;DHT22;9031;50.974;11.330;2023-07-20T04:55:35;16.30;99.90
17815;DHT22;9031;50.974;11.330;2023-07-20T04:58:02;16.40;99.90
17815;DHT22;9031;50.974;11.330;2023-07-20T05:00:37;16.40;99.90
17815;DHT22;9031;50.974;11.330;2023-07-20T05:03:03;16.30;99.90
17815;DHT22;9031;50.974;11.330;2023-07-20T05:05:31;16.40;99.90
17815;DHT22;9031;50.974;11.330;2023-07-20T05:07:57;16.40;99.90
17815;DHT22;9031;50.974;11.330;2023-07-20T05:10:23;16.60;99.90
17815;DHT22;9031;50.974;11.330;2023-07-20T05:12:49;16.70;99.90
17815;DHT22;9031;50.974;11.330;2023-07-20T05:15:15;16.80;99.90
17815;DHT22;9031;50.974;11.330;2023-07-20T05:17:40;16.80;99.90
17815;DHT22;9031;50.974;11.330;2023-07-20T05:20:06;16.70;99.90
17815;DHT22;9031;50.974;11.330;2023-07-20T05:22:32;16.80;99.90
17815;DHT22;9031;50.974;11.330;2023-07-20T05:24:58;16.90;99.90
17815;DHT22;9031;50.974;11.330;2023-07-20T05:27:24;17.10;99.90
17815;DHT22;9031;50.974;11.330;2023-07-20T05:29:49;17.20;99.90
17815;DHT22;9031;50.974;11.330;2023-07-20T05:32:15;17.20;99.90
17815;DHT22;9031;50.974;11.330;2023-07-20T05:34:40;17.20;99.90
17815;DHT22;9031;50.974;11.330;2023-07-20T05:37:08;17.10;99.90
17815;DHT22;9031;50.974;11.330;2023-07-20T05:39:34;17.00;99.90
17815;DHT22;9031;50.974;11.330;2023-07-20T05:42:00;16.90;99.90
17815;DHT22;9031;50.974;11.330;2023-07-20T05:44:25;16.90;99.90
17815;DHT22;9031;50.974;11.330;2023-07-20T05:46:51;16.80;99.90
17815;DHT22;9031;50.974;11.330;2023-07-20T05:49:16;16.90;99.90
17815;DHT22;9031;50.974;11.330;2023-07-20T05:51:42;17.10;99.90
17815;DHT22;9031;50.974;11.330;2023-07-20T05:54:07;17.30;99.90
17815;DHT22;9031;50.974;11.330;2023-07-20T05:56:33;17.30;99.90
17815;DHT22;9031;50.974;11.330;2023-07-20T05:58:59;17.50;99.90
17815;DHT22;9031;50.974;11.330;2023-07-20T06:01:24;17.40;99.90
17815;DHT22;9031;50.974;11.330;2023-07-20T06:03:52;17.50;99.90
17815;DHT22;9031;50.974;11.330;2023-07-20T06:06:18;17.50;99.90
17815;DHT22;9031;50.974;11.330;2023-07-20T06:08:44;17.50;99.90
17815;DHT22;9031;50.974;11.330;2023-07-20T06:11:10;17.50;99.90
17815;DHT22;9031;50.974;11.330;2023-07-20T06:13:35;17.30;99.90
17815;DHT22;9031;50.974;11.330;2023-07-20T06:16:01;17.20;99.90
17815;DHT22;9031;50.974;11.330;2023-07-20T06:18:27;17.20;99.90
17815;DHT22;9031;50.974;11.330;2023-07-20T06:20:52;17.40;99.90
17815;DHT22;9031;50.974;11.330;2023-07-20T06:23:19;17.70;99.90
17815;DHT22;9031;50.974;11.330;2023-07-20T06:25:45;17.80;99.90
17815;DHT22;9031;50.974;11.330;2023-07-20T06:28:11;17.80;99.90
17815;DHT22;9031;50.974;11.330;2023-07-20T06:30:37;18.00;99.90
17815;DHT22;9031;50.974;11.330;2023-07-20T06:33:02;18.20;99.90
17815;DHT22;9031;50.974;11.330;2023-07-20T06:35:28;18.60;99.90
17815;DHT22;9031;50.974;11.330;2023-07-20T06:37:53;18.60;99.90
17815;DHT22;9031;50.974;11.330;2023-07-20T06:40:19;18.50;99.90
17815;DHT22;9031;50.974;11.330;2023-07-20T06:42:44;18.50;99.90
17815;DHT22;9031;50.974;11.330;2023-07-20T06:45:10;18.70;99.90
17815;DHT22;9031;50.974;11.330;2023-07-20T06:47:38;18.90;99.90
17815;DHT22;9031;50.974;11.330;2023-07-20T06:50:06;18.70;99.90
17815;DHT22;9031;50.974;11.330;2023-07-20T06:52:32;18.90;99.90
17815;DHT22;9031;50.974;11.330;2023-07-20T06:54:57;19.00;99.90
17815;DHT22;9031;50.974;11.330;2023-07-20T06:57:23;19.00;99.90
17815;DHT22;9031;50.974;11.330;2023-07-20T06:59:48;19.00;99.90
17815;DHT22;9031;50.974;11.330;2023-07-20T07:02:14;19.00;99.90
17815;DHT22;9031;50.974;11.330;2023-07-20T07:04:40;19.00;99.90
17815;DHT22;9031;50.974;11.330;2023-07-20T07:07:05;19.00;99.90
17815;DHT22;9031;50.974;11.330;2023-07-20T07:09:31;19.20;99.90
17815;DHT22;9031;50.974;11.330;2023-07-20T07:11:56;19.30;99.90
17815;DHT22;9031;50.974;11.330;2023-07-20T07:14:22;19.60;99.90
17815;DHT22;9031;50.974;11.330;2023-07-20T07:16:48;19.60;99.90
17815;DHT22;9031;50.974;11.330;2023-07-20T07:19:13;19.80;99.90
17815;DHT22;9031;50.974;11.330;2023-07-20T07:21:39;20.00;99.90
17815;DHT22;9031;50.974;11.330;2023-07-20T07:24:05;20.10;99.90
17815;DHT22;9031;50.974;11.330;2023-07-20T07:26:32;19.70;99.90
17815;DHT22;9031;50.974;11.330;2023-07-20T07:28:58;19.60;99.90
17815;DHT22;9031;50.974;11.330;2023-07-20T07:31:25;19.60;99.90
17815;DHT22;9031;50.974;11.330;2023-07-20T07:33:51;19.90;99.90
17815;DHT22;9031;50.974;11.330;2023-07-20T07:36:16;20.40;99.90
17815;DHT22;9031;50.974;11.330;2023-07-20T07:38:41;20.50;99.90
17815;DHT22;9031;50.974;11.330;2023-07-20T07:41:08;20.30;99.90
17815;DHT22;9031;50.974;11.330;2023-07-20T07:43:33;20.30;99.90
17815;DHT22;9031;50.974;11.330;2023-07-20T07:46:00;20.20;99.90
17815;DHT22;9031;50.974;11.330;2023-07-20T07:48:27;20.40;99.90
17815;DHT22;9031;50.974;11.330;2023-07-20T07:50:54;20.90;99.90
17815;DHT22;9031;50.974;11.330;2023-07-20T07:53:19;20.80;99.90
17815;DHT22;9031;50.974;11.330;2023-07-20T07:55:47;21.40;99.90
17815;DHT22;9031;50.974;11.330;2023-07-20T07:58:12;21.20;99.90
17815;DHT22;9031;50.974;11.330;2023-07-20T08:00:38;20.80;99.90
17815;DHT22;9031;50.974;11.330;2023-07-20T08:03:06;20.20;99.90
17815;DHT22;9031;50.974;11.330;2023-07-20T08:05:31;20.70;99.90
17815;DHT22;9031;50.974;11.330;2023-07-20T08:07:57;21.20;99.90
17815;DHT22;9031;50.974;11.330;2023-07-20T08:10:22;21.60;99.90
17815;DHT22;9031;50.974;11.330;2023-07-20T08:12:48;21.50;99.90
17815;DHT22;9031;50.974;11.330;2023-07-20T08:15:14;21.10;99.90
17815;DHT22;9031;50.974;11.330;2023-07-20T08:17:40;21.10;99.90
17815;DHT22;9031;50.974;11.330;2023-07-20T08:20:06;21.30;99.90
17815;DHT22;9031;50.974;11.330;2023-07-20T08:22:32;21.90;99.90
17815;DHT22;9031;50.974;11.330;2023-07-20T08:24:57;22.20;99.90
17815;DHT22;9031;50.974;11.330;2023-07-20T08:27:23;22.10;99.90
17815;DHT22;9031;50.974;11.330;2023-07-20T08:29:48;22.40;99.90
17815;DHT22;9031;50.974;11.330;2023-07-20T08:32:15;22.60;99.90
17815;DHT22;9031;50.974;11.330;2023-07-20T08:34:41;22.90;99.90
17815;DHT22;9031;50.974;11.330;2023-07-20T08:37:07;23.00;99.90
17815;DHT22;9031;50.974;11.330;2023-07-20T08:39:35;22.90;99.90
17815;DHT22;9031;50.974;11.330;2023-07-20T08:42:01;22.90;99.90
17815;DHT22;9031;50.974;11.330;2023-07-20T08:44:31;22.40;99.90
17815;DHT22;9031;50.974;11.330;2023-07-20T08:46:57;21.70;99.90
17815;DHT22;9031;50.974;11.330;2023-07-20T08:49:24;21.10;99.90
17815;DHT22;9031;50.974;11.330;2023-07-20T08:51:50;20.60;99.90
17815;DHT22;9031;50.974;11.330;2023-07-20T08:54:17;20.50;99.90
17815;DHT22;9031;50.974;11.330;2023-07-20T08:56:45;20.60;99.90
17815;DHT22;9031;50.974;11.330;2023-07-20T08:59:13;20.70;99.90
17815;DHT22;9031;50.974;11.330;2023-07-20T09:01:39;20.60;99.90
17815;DHT22;9031;50.974;11.330;2023-07-20T09:04:06;20.80;99.90
17815;DHT22;9031;50.974;11.330;2023-07-20T09:06:32;21.50;99.90
17815;DHT22;9031;50.974;11.330;2023-07-20T09:08:59;22.00;99.90
17815;DHT22;9031;50.974;11.330;2023-07-20T09:11:25;22.40;99.90
17815;DHT22;9031;50.974;11.330;2023-07-20T09:14:07;22.40;99.90
17815;DHT22;9031;50.974;11.330;2023-07-20T09:16:46;22.80;99.90
17815;DHT22;9031;50.974;11.330;2023-07-20T09:19:12;23.40;99.90
17815;DHT22;9031;50.974;11.330;2023-07-20T09:21:38;23.90;99.90
17815;DHT22;9031;50.974;11.330;2023-07-20T09:24:03;23.70;99.90
17815;DHT22;9031;50.974;11.330;2023-07-20T09:26:40;23.70;99.90
17815;DHT22;9031;50.974;11.330;2023-07-20T09:29:07;22.50;99.90
17815;DHT22;9031;50.974;11.330;2023-07-20T09:31:34;21.90;99.90
17815;DHT22;9031;50.974;11.330;2023-07-20T09:34:00;21.50;99.90
17815;DHT22;9031;50.974;11.330;2023-07-20T09:36:28;21.40;99.90
17815;DHT22;9031;50.974;11.330;2023-07-20T09:38:54;21.30;99.90
17815;DHT22;9031;50.974;11.330;2023-07-20T09:41:21;21.00;99.90
17815;DHT22;9031;50.974;11.330;2023-07-20T09:43:47;20.70;99.90
17815;DHT22;9031;50.974;11.330;2023-07-20T09:46:13;20.50;99.90
17815;DHT22;9031;50.974;11.330;2023-07-20T09:48:39;20.50;99.90
17815;DHT22;9031;50.974;11.330;2023-07-20T09:51:06;20.30;99.90
17815;DHT22;9031;50.974;11.330;2023-07-20T09:53:33;20.10;99.90
17815;DHT22;9031;50.974;11.330;2023-07-20T09:55:59;19.70;99.90
17815;DHT22;9031;50.974;11.330;2023-07-20T09:58:28;19.30;99.90
17815;DHT22;9031;50.974;11.330;2023-07-20T10:00:57;19.10;99.90
17815;DHT22;9031;50.974;11.330;2023-07-20T10:03:27;18.90;99.90
17815;DHT22;9031;50.974;11.330;2023-07-20T10:06:00;18.50;99.90
17815;DHT22;9031;50.974;11.330;2023-07-20T10:08:29;18.00;99.90
17815;DHT22;9031;50.974;11.330;2023-07-20T10:10:57;17.50;99.90
17815;DHT22;9031;50.974;11.330;2023-07-20T10:13:29;17.20;99.90
17815;DHT22;9031;50.974;11.330;2023-07-20T10:16:02;17.20;99.90
17815;DHT22;9031;50.974;11.330;2023-07-20T10:21:09;17.20;99.90
17815;DHT22;9031;50.974;11.330;2023-07-20T10:23:35;17.30;99.90
17815;DHT22;9031;50.974;11.330;2023-07-20T10:26:01;17.40;99.90
17815;DHT22;9031;50.974;11.330;2023-07-20T10:28:28;17.50;99.90
17815;DHT22;9031;50.974;11.330;2023-07-20T10:30:54;17.50;99.90
17815;DHT22;9031;50.974;11.330;2023-07-20T10:33:20;17.40;99.90
17815;DHT22;9031;50.974;11.330;2023-07-20T10:35:56;17.30;99.90
17815;DHT22;9031;50.974;11.330;2023-07-20T10:41:19;17.10;99.90
17815;DHT22;9031;50.974;11.330;2023-07-20T10:43:46;17.00;99.90
17815;DHT22;9031;50.974;11.330;2023-07-20T10:46:13;17.10;99.90
17815;DHT22;9031;50.974;11.330;2023-07-20T10:49:01;17.10;99.90
17815;DHT22;9031;50.974;11.330;2023-07-20T10:51:30;17.20;99.90
17815;DHT22;9031;50.974;11.330;2023-07-20T10:54:03;17.40;99.90
17815;DHT22;9031;50.974;11.330;2023-07-20T10:56:29;17.80;99.90
17815;DHT22;9031;50.974;11.330;2023-07-20T10:59:01;17.90;99.90
17815;DHT22;9031;50.974;11.330;2023-07-20T11:01:44;18.10;99.90
17815;DHT22;9031;50.974;11.330;2023-07-20T11:04:10;20.20;99.90
17815;DHT22;9031;50.974;11.330;2023-07-20T11:06:36;22.90;99.90
17815;DHT22;9031;50.974;11.330;2023-07-20T11:09:07;24.30;99.90
17815;DHT22;9031;50.974;11.330;2023-07-20T11:11:37;25.10;99.90
17815;DHT22;9031;50.974;11.330;2023-07-20T11:14:05;25.50;99.90
17815;DHT22;9031;50.974;11.330;2023-07-20T11:19:03;25.80;99.90
17815;DHT22;9031;50.974;11.330;2023-07-20T11:21:35;23.80;99.90
17815;DHT22;9031;50.974;11.330;2023-07-20T11:24:03;23.10;99.90
17815;DHT22;9031;50.974;11.330;2023-07-20T11:26:29;22.20;99.90
17815;DHT22;9031;50.974;11.330;2023-07-20T11:28:54;21.90;99.90
17815;DHT22;9031;50.974;11.330;2023-07-20T11:31:19;22.00;99.90
17815;DHT22;9031;50.974;11.330;2023-07-20T11:33:45;21.80;99.90
17815;DHT22;9031;50.974;11.330;2023-07-20T11:36:12;21.40;99.90
17815;DHT22;9031;50.974;11.330;2023-07-20T11:38:41;20.90;99.90
17815;DHT22;9031;50.974;11.330;2023-07-20T11:41:07;20.30;99.90
17815;DHT22;9031;50.974;11.330;2023-07-20T11:43:32;19.70;99.90
17815;DHT22;9031;50.974;11.330;2023-07-20T11:45:58;19.30;99.90
17815;DHT22;9031;50.974;11.330;2023-07-20T11:48:24;19.10;99.90
17815;DHT22;9031;50.974;11.330;2023-07-20T11:50:49;19.10;99.90
17815;DHT22;9031;50.974;11.330;2023-07-20T11:53:15;19.40;99.90
17815;DHT22;9031;50.974;11.330;2023-07-20T11:55:42;19.50;99.90
17815;DHT22;9031;50.974;11.330;2023-07-20T11:58:08;19.70;99.90
17815;DHT22;9031;50.974;11.330;2023-07-20T12:00:36;19.90;99.90
17815;DHT22;9031;50.974;11.330;2023-07-20T12:03:05;20.20;99.90
17815;DHT22;9031;50.974;11.330;2023-07-20T12:05:32;20.20;99.90
17815;DHT22;9031;50.974;11.330;2023-07-20T12:07:58;20.40;99.90
17815;DHT22;9031;50.974;11.330;2023-07-20T12:10:28;20.50;99.90
17815;DHT22;9031;50.974;11.330;2023-07-20T12:12:54;20.90;99.90
17815;DHT22;9031;50.974;11.330;2023-07-20T12:15:24;20.80;99.90
17815;DHT22;9031;50.974;11.330;2023-07-20T12:17:59;20.80;99.90
17815;DHT22;9031;50.974;11.330;2023-07-20T12:20:33;20.90;99.90
17815;DHT22;9031;50.974;11.330;2023-07-20T12:23:05;21.00;99.90
17815;DHT22;9031;50.974;11.330;2023-07-20T12:28:01;21.90;99.90
17815;DHT22;9031;50.974;11.330;2023-07-20T12:30:28;22.70;99.90
17815;DHT22;9031;50.974;11.330;2023-07-20T12:32:53;23.50;99.90
17815;DHT22;9031;50.974;11.330;2023-07-20T12:35:19;25.00;99.90
17815;DHT22;9031;50.974;11.330;2023-07-20T12:37:44;25.90;99.40
17815;DHT22;9031;50.974;11.330;2023-07-20T12:40:14;25.90;97.30
17815;DHT22;9031;50.974;11.330;2023-07-20T12:42:39;25.00;98.30
17815;DHT22;9031;50.974;11.330;2023-07-20T12:45:05;23.90;99.60
17815;DHT22;9031;50.974;11.330;2023-07-20T12:47:31;23.20;99.90
17815;DHT22;9031;50.974;11.330;2023-07-20T12:49:56;23.60;99.90
17815;DHT22;9031;50.974;11.330;2023-07-20T12:52:22;25.90;98.60
17815;DHT22;9031;50.974;11.330;2023-07-20T12:54:47;27.60;95.50
17815;DHT22;9031;50.974;11.330;2023-07-20T12:57:13;27.60;91.60
17815;DHT22;9031;50.974;11.330;2023-07-20T12:59:38;27.50;90.80
17815;DHT22;9031;50.974;11.330;2023-07-20T13:02:04;28.10;90.00
17815;DHT22;9031;50.974;11.330;2023-07-20T13:04:30;28.60;88.40
17815;DHT22;9031;50.974;11.330;2023-07-20T13:06:56;28.60;88.30
17815;DHT22;9031;50.974;11.330;2023-07-20T13:09:24;29.60;83.70
17815;DHT22;9031;50.974;11.330;2023-07-20T13:11:50;29.50;80.00
17815;DHT22;9031;50.974;11.330;2023-07-20T13:14:16;27.80;82.90
17815;DHT22;9031;50.974;11.330;2023-07-20T13:16:41;26.50;86.10
17815;DHT22;9031;50.974;11.330;2023-07-20T13:19:07;26.20;87.00
17815;DHT22;9031;50.974;11.330;2023-07-20T13:21:33;27.10;85.40
17815;DHT22;9031;50.974;11.330;2023-07-20T13:23:58;27.50;80.20
17815;DHT22;9031;50.974;11.330;2023-07-20T13:26:24;25.90;85.70
17815;DHT22;9031;50.974;11.330;2023-07-20T13:28:50;26.90;84.60
17815;DHT22;9031;50.974;11.330;2023-07-20T13:31:15;26.40;86.00
17815;DHT22;9031;50.974;11.330;2023-07-20T13:33:42;25.60;89.70
17815;DHT22;9031;50.974;11.330;2023-07-20T13:36:08;26.10;88.50
17815;DHT22;9031;50.974;11.330;2023-07-20T13:38:33;26.60;87.00
17815;DHT22;9031;50.974;11.330;2023-07-20T13:40:59;26.20;86.20
17815;DHT22;9031;50.974;11.330;2023-07-20T13:43:24;25.40;89.40
17815;DHT22;9031;50.974;11.330;2023-07-20T13:45:50;24.90;90.10
17815;DHT22;9031;50.974;11.330;2023-07-20T13:48:16;24.50;91.50
17815;DHT22;9031;50.974;11.330;2023-07-20T13:50:45;24.10;91.90
17815;DHT22;9031;50.974;11.330;2023-07-20T13:53:11;24.10;92.20
17815;DHT22;9031;50.974;11.330;2023-07-20T13:55:38;24.80;92.60
17815;DHT22;9031;50.974;11.330;2023-07-20T13:58:03;26.90;88.40
17815;DHT22;9031;50.974;11.330;2023-07-20T14:00:29;27.70;86.20
17815;DHT22;9031;50.974;11.330;2023-07-20T14:02:58;26.30;86.30
17815;DHT22;9031;50.974;11.330;2023-07-20T14:05:24;25.20;91.40
17815;DHT22;9031;50.974;11.330;2023-07-20T14:07:49;24.30;91.80
17815;DHT22;9031;50.974;11.330;2023-07-20T14:10:15;23.30;93.60
17815;DHT22;9031;50.974;11.330;2023-07-20T14:12:41;22.70;95.00
17815;DHT22;9031;50.974;11.330;2023-07-20T14:15:06;22.70;96.20
17815;DHT22;9031;50.974;11.330;2023-07-20T14:17:32;22.90;96.10
17815;DHT22;9031;50.974;11.330;2023-07-20T14:19:57;22.90;95.70
17815;DHT22;9031;50.974;11.330;2023-07-20T14:22:23;22.70;96.00
17815;DHT22;9031;50.974;11.330;2023-07-20T14:24:49;22.50;96.60
17815;DHT22;9031;50.974;11.330;2023-07-20T14:27:14;22.50;97.80
17815;DHT22;9031;50.974;11.330;2023-07-20T14:29:40;22.50;97.10
17815;DHT22;9031;50.974;11.330;2023-07-20T14:32:06;22.30;97.50
17815;DHT22;9031;50.974;11.330;2023-07-20T14:34:33;22.20;98.40
17815;DHT22;9031;50.974;11.330;2023-07-20T14:36:59;22.30;98.30
17815;DHT22;9031;50.974;11.330;2023-07-20T14:39:25;22.60;98.80
17815;DHT22;9031;50.974;11.330;2023-07-20T14:41:50;23.00;97.40
17815;DHT22;9031;50.974;11.330;2023-07-20T14:44:16;23.50;95.80
17815;DHT22;9031;50.974;11.330;2023-07-20T14:46:42;24.20;95.00
17815;DHT22;9031;50.974;11.330;2023-07-20T14:49:07;26.00;92.80
17815;DHT22;9031;50.974;11.330;2023-07-20T14:51:33;26.60;91.40
17815;DHT22;9031;50.974;11.330;2023-07-20T14:54:01;27.10;89.70
17815;DHT22;9031;50.974;11.330;2023-07-20T14:56:27;28.00;86.80
17815;DHT22;9031;50.974;11.330;2023-07-20T14:58:52;27.20;85.20
17815;DHT22;9031;50.974;11.330;2023-07-20T15:01:18;26.10;87.40
17815;DHT22;9031;50.974;11.330;2023-07-20T15:03:43;26.70;87.60
17815;DHT22;9031;50.974;11.330;2023-07-20T15:06:12;27.70;84.40
17815;DHT22;9031;50.974;11.330;2023-07-20T15:08:37;28.20;79.80
17815;DHT22;9031;50.974;11.330;2023-07-20T15:11:03;28.30;77.40
17815;DHT22;9031;50.974;11.330;2023-07-20T15:13:28;27.50;78.00
17815;DHT22;9031;50.974;11.330;2023-07-20T15:15:54;26.00;82.10
17815;DHT22;9031;50.974;11.330;2023-07-20T15:18:20;25.30;86.20
17815;DHT22;9031;50.974;11.330;2023-07-20T15:20:45;24.60;87.60
17815;DHT22;9031;50.974;11.330;2023-07-20T15:23:12;23.90;89.20
17815;DHT22;9031;50.974;11.330;2023-07-20T15:25:38;23.50;90.60
17815;DHT22;9031;50.974;11.330;2023-07-20T15:28:04;23.20;90.90
17815;DHT22;9031;50.974;11.330;2023-07-20T15:30:29;22.90;91.50
17815;DHT22;9031;50.974;11.330;2023-07-20T15:32:55;22.50;91.80
17815;DHT22;9031;50.974;11.330;2023-07-20T15:35:24;22.30;92.80
17815;DHT22;9031;50.974;11.330;2023-07-20T15:37:49;22.20;92.90
17815;DHT22;9031;50.974;11.330;2023-07-20T15:40:15;22.10;93.20
17815;DHT22;9031;50.974;11.330;2023-07-20T15:42:40;22.20;93.40
17815;DHT22;9031;50.974;11.330;2023-07-20T15:45:06;22.10;94.20
17815;DHT22;9031;50.974;11.330;2023-07-20T15:47:32;22.00;93.70